createdAt,value
2023-04-27T00:03:52.210Z,79.20
2023-04-27T00:13:23.821Z,81.71
2023-04-27T00:22:56.791Z,83.97
2023-04-27T00:32:31.482Z,86.38
2023-04-27T00:42:03.138Z,86.62
2023-04-27T00:51:36.419Z,88.08
2023-04-27T01:01:11.542Z,88.99
2023-04-27T01:10:44.758Z,87.57
2023-04-27T01:20:16.531Z,86.22
2023-04-27T01:29:49.731Z,87.55
2023-04-27T01:39:24.798Z,88.91
2023-04-27T01:40:28.713Z,89.16
2023-04-27T01:49:59.174Z,88.90
2023-04-27T01:59:32.873Z,87.55
2023-04-27T02:09:06.464Z,88.34
2023-04-27T02:18:41.386Z,90.42
2023-04-27T02:28:12.992Z,92.23
2023-04-27T02:37:47.983Z,91.79
2023-04-27T02:47:19.546Z,91.93
2023-04-27T02:56:53.042Z,90.82
2023-04-27T03:06:26.396Z,91.36
2023-04-27T03:15:59.827Z,92.49
2023-04-27T03:25:34.256Z,94.10
2023-04-27T03:35:07.699Z,95.13
2023-04-27T03:44:39.616Z,96.06
2023-04-27T03:54:14.716Z,96.11
2023-04-27T04:03:48.478Z,96.47
2023-04-27T04:13:20.035Z,96.96
2023-04-27T04:22:53.773Z,97.02
2023-04-27T04:32:27.832Z,96.70
2023-04-27T04:42:01.347Z,96.31
2023-04-27T04:51:36.335Z,95.66
2023-04-27T05:01:06.778Z,95.53
2023-04-27T05:10:37.799Z,94.05
2023-04-27T05:20:11.364Z,91.85
2023-04-27T05:29:45.192Z,91.75
2023-04-27T05:39:17.662Z,92.05
2023-04-27T05:48:50.587Z,93.99
2023-04-27T05:58:25.295Z,92.88
2023-04-27T06:07:57.749Z,90.74
2023-04-27T06:17:31.867Z,84.56
2023-04-27T06:27:08.261Z,81.69
2023-04-27T06:36:40.641Z,75.83
2023-04-27T06:37:43.051Z,75.13
2023-04-27T06:47:19.779Z,72.70
2023-04-27T06:48:22.148Z,74.05
2023-04-27T06:49:24.548Z,72.44
2023-04-27T06:50:28.480Z,71.59
2023-04-27T06:51:32.468Z,71.66
2023-04-27T06:52:34.658Z,70.07
2023-04-27T06:53:37.018Z,70.99
2023-04-27T06:54:39.410Z,71.75
2023-04-27T06:55:43.516Z,70.31
2023-04-27T06:56:45.736Z,70.20
2023-04-27T06:57:48.063Z,68.62
2023-04-27T06:58:52.013Z,69.64
2023-04-27T06:59:54.281Z,68.80
2023-04-27T07:09:27.674Z,70.63
2023-04-27T07:10:30.397Z,70.82
2023-04-27T07:11:34.341Z,72.08
2023-04-27T07:12:36.628Z,71.66
2023-04-27T07:13:38.988Z,70.01
2023-04-27T07:14:41.413Z,68.59
2023-04-27T07:15:43.905Z,68.54
2023-04-27T07:16:46.277Z,70.05
2023-04-27T07:17:48.697Z,69.78
2023-04-27T07:18:52.671Z,67.20
2023-04-27T07:19:54.914Z,67.68
2023-04-27T07:20:57.331Z,69.69
2023-04-27T07:22:01.576Z,70.77
2023-04-27T07:23:05.211Z,70.55
2023-04-27T07:24:09.112Z,66.85
2023-04-27T07:25:11.375Z,65.44
2023-04-27T07:26:15.291Z,67.71
2023-04-27T07:27:19.296Z,65.18
2023-04-27T07:28:21.461Z,64.01
2023-04-27T07:29:27.285Z,64.33
2023-04-27T07:30:27.807Z,67.04
2023-04-27T07:31:30.075Z,65.97
2023-04-27T07:32:32.566Z,64.37
2023-04-27T07:33:34.985Z,63.01
2023-04-27T07:34:49.525Z,63.54
2023-04-27T07:35:41.344Z,64.44
2023-04-27T07:36:43.651Z,62.12
2023-04-27T07:37:47.628Z,62.04
2023-04-27T07:38:49.931Z,62.21
2023-04-27T07:39:52.314Z,60.90
2023-04-27T07:40:56.247Z,60.72
2023-04-27T07:42:00.140Z,62.05
2023-04-27T07:43:04.019Z,61.88
2023-04-27T07:44:06.417Z,61.19
2023-04-27T07:45:11.349Z,62.63
2023-04-27T07:46:15.251Z,60.53
2023-04-27T07:47:19.224Z,60.67
2023-04-27T07:48:23.235Z,59.74
2023-04-27T07:49:25.448Z,59.99
2023-04-27T07:50:27.906Z,60.97
2023-04-27T07:51:30.317Z,61.64
2023-04-27T07:52:34.360Z,60.83
2023-04-27T07:53:38.269Z,58.95
2023-04-27T07:54:40.619Z,58.74
2023-04-27T07:55:42.971Z,58.80
2023-04-27T07:56:45.389Z,58.03
2023-04-27T07:57:49.466Z,58.95
2023-04-27T07:58:51.720Z,60.01
2023-04-27T07:59:54.168Z,61.53
2023-04-27T08:00:58.233Z,59.63
2023-04-27T08:02:17.461Z,60.69
2023-04-27T08:03:06.074Z,60.92
2023-04-27T08:04:08.431Z,60.10
2023-04-27T08:05:11.166Z,58.38
2023-04-27T08:06:15.048Z,57.74
2023-04-27T08:07:17.530Z,57.81
2023-04-27T08:08:19.689Z,58.26
2023-04-27T08:09:21.797Z,59.17
2023-04-27T08:10:25.834Z,57.21
2023-04-27T08:11:29.712Z,58.23
2023-04-27T08:12:32.048Z,57.35
2023-04-27T08:13:36.046Z,55.03
2023-04-27T08:14:38.373Z,54.73
2023-04-27T08:15:42.403Z,56.24
2023-04-27T08:16:46.236Z,56.69
2023-04-27T08:17:50.218Z,55.86
2023-04-27T08:18:52.393Z,55.88
2023-04-27T08:19:56.440Z,53.81
2023-04-27T08:21:00.270Z,54.64
2023-04-27T08:22:04.192Z,55.91
2023-04-27T08:23:06.467Z,55.22
2023-04-27T08:24:10.458Z,55.43
2023-04-27T08:25:12.778Z,55.24
2023-04-27T08:26:16.774Z,54.78
2023-04-27T08:27:19.019Z,54.91
2023-04-27T08:28:21.507Z,54.02
2023-04-27T08:29:28.236Z,55.54
2023-04-27T08:38:56.577Z,51.98
2023-04-27T08:39:59.068Z,51.61
2023-04-27T08:41:07.891Z,52.04
2023-04-27T08:42:03.931Z,51.77
2023-04-27T08:43:06.358Z,53.13
2023-04-27T08:44:08.820Z,52.72
2023-04-27T08:45:11.286Z,53.97
2023-04-27T08:46:13.711Z,53.47
2023-04-27T08:47:20.161Z,55.28
2023-04-27T08:48:21.623Z,52.81
2023-04-27T08:49:25.560Z,53.51
2023-04-27T08:50:27.846Z,54.74
2023-04-27T08:51:30.277Z,53.71
2023-04-27T08:52:32.700Z,55.62
2023-04-27T08:53:36.736Z,54.97
2023-04-27T08:54:40.659Z,55.88
2023-04-27T08:55:44.590Z,55.67
2023-04-27T08:56:48.417Z,53.45
2023-04-27T08:57:52.331Z,52.94
2023-04-27T08:58:56.261Z,54.31
2023-04-27T08:59:58.548Z,53.62
2023-04-27T09:01:00.909Z,53.83
2023-04-27T09:02:05.038Z,53.98
2023-04-27T09:03:07.378Z,53.52
2023-04-27T09:04:09.853Z,54.45
2023-04-27T09:05:13.754Z,53.97
2023-04-27T09:06:17.711Z,52.34
2023-04-27T09:07:21.575Z,53.34
2023-04-27T09:08:23.830Z,52.67
2023-04-27T09:09:26.303Z,54.19
2023-04-27T09:10:28.691Z,54.67
2023-04-27T09:11:32.714Z,54.65
2023-04-27T09:12:36.610Z,51.31
2023-04-27T09:13:38.928Z,49.85
2023-04-27T09:14:42.951Z,52.65
2023-04-27T09:15:47.076Z,52.61
2023-04-27T09:16:47.829Z,52.72
2023-04-27T09:17:51.762Z,53.91
2023-04-27T09:18:53.983Z,53.98
2023-04-27T09:19:56.381Z,53.01
2023-04-27T09:20:58.837Z,51.58
2023-04-27T09:22:01.328Z,50.78
2023-04-27T09:23:03.688Z,49.16
2023-04-27T09:24:07.740Z,49.83
2023-04-27T09:25:11.652Z,51.17
2023-04-27T09:26:15.597Z,51.74
2023-04-27T09:27:19.489Z,51.40
2023-04-27T09:28:21.847Z,51.62
2023-04-27T09:29:24.321Z,51.76
2023-04-27T09:30:28.317Z,52.33
2023-04-27T09:31:30.639Z,51.01
2023-04-27T09:32:34.651Z,51.79
2023-04-27T09:33:36.972Z,52.13
2023-04-27T09:34:39.365Z,49.24
2023-04-27T09:35:41.818Z,49.50
2023-04-27T09:36:45.877Z,48.39
2023-04-27T09:37:48.216Z,48.90
2023-04-27T09:38:52.251Z,51.15
2023-04-27T09:39:54.513Z,53.37
2023-04-27T09:40:56.950Z,49.77
2023-04-27T09:42:01.040Z,49.85
2023-04-27T09:43:03.412Z,49.74
2023-04-27T09:44:05.760Z,51.38
2023-04-27T09:45:08.198Z,52.89
2023-04-27T09:46:10.679Z,50.79
2023-04-27T09:47:13.313Z,46.18
2023-04-27T09:48:15.773Z,47.03
2023-04-27T09:49:18.225Z,47.15
2023-04-27T09:50:20.643Z,45.79
2023-04-27T09:51:23.114Z,47.07
2023-04-27T09:52:25.559Z,46.93
2023-04-27T09:53:28.095Z,45.84
2023-04-27T09:54:30.535Z,46.99
2023-04-27T09:55:34.512Z,47.78
2023-04-27T09:56:36.819Z,47.72
2023-04-27T09:57:39.308Z,46.50
2023-04-27T09:58:41.753Z,45.87
2023-04-27T09:59:44.187Z,47.04
2023-04-27T10:00:46.825Z,46.79
2023-04-27T10:01:49.282Z,46.37
2023-04-27T10:02:53.917Z,45.95
2023-04-27T10:03:55.962Z,45.61
2023-04-27T10:04:58.311Z,46.81
2023-04-27T10:06:00.594Z,45.53
2023-04-27T10:07:04.636Z,46.78
2023-04-27T10:08:09.534Z,46.63
2023-04-27T10:09:11.970Z,45.87
2023-04-27T10:10:14.249Z,47.50
2023-04-27T10:11:17.759Z,48.48
2023-04-27T10:12:20.136Z,47.69
2023-04-27T10:13:22.504Z,46.14
2023-04-27T10:14:25.087Z,48.39
2023-04-27T10:15:27.588Z,46.01
2023-04-27T10:16:30.063Z,44.54
2023-04-27T10:17:32.578Z,46.62
2023-04-27T10:18:36.576Z,44.06
2023-04-27T10:19:41.712Z,44.77
2023-04-27T10:20:45.454Z,44.76
2023-04-27T10:21:49.403Z,45.41
2023-04-27T10:22:51.744Z,44.89
2023-04-27T10:23:54.226Z,45.96
2023-04-27T10:24:58.145Z,45.73
2023-04-27T10:26:00.456Z,45.00
2023-04-27T10:27:02.873Z,45.14
2023-04-27T10:28:06.848Z,45.15
2023-04-27T10:29:09.411Z,46.03
2023-04-27T10:30:11.912Z,45.98
2023-04-27T10:31:15.384Z,45.62
2023-04-27T10:32:16.861Z,45.20
2023-04-27T10:33:20.774Z,45.83
2023-04-27T10:34:24.742Z,47.64
2023-04-27T10:35:28.633Z,46.11
2023-04-27T10:36:32.505Z,44.12
2023-04-27T10:37:36.464Z,46.28
2023-04-27T10:38:38.805Z,47.07
2023-04-27T10:39:48.370Z,46.11
2023-04-27T10:40:43.737Z,45.67
2023-04-27T10:41:48.025Z,45.41
2023-04-27T10:42:50.309Z,48.84
2023-04-27T10:43:54.346Z,46.75
2023-04-27T10:44:56.760Z,46.49
2023-04-27T10:46:00.971Z,45.18
2023-04-27T10:47:03.461Z,46.12
2023-04-27T10:48:05.878Z,45.54
2023-04-27T10:49:08.463Z,45.02
2023-04-27T10:50:10.851Z,43.97
2023-04-27T10:51:14.795Z,44.20
2023-04-27T10:52:17.177Z,43.20
2023-04-27T10:53:19.628Z,44.08
2023-04-27T10:54:22.087Z,44.15
2023-04-27T10:55:24.525Z,44.29
2023-04-27T10:56:26.938Z,43.70
2023-04-27T10:57:31.242Z,42.82
2023-04-27T10:58:45.201Z,43.58
2023-04-27T10:59:37.533Z,44.21
2023-04-27T11:00:39.913Z,45.35
2023-04-27T11:01:43.991Z,47.41
2023-04-27T11:02:47.896Z,46.77
2023-04-27T11:03:51.849Z,45.63
2023-04-27T11:04:55.717Z,46.09
2023-04-27T11:05:59.561Z,45.24
2023-04-27T11:07:03.430Z,46.21
2023-04-27T11:08:05.748Z,46.14
2023-04-27T11:09:08.203Z,46.97
2023-04-27T11:10:10.683Z,46.62
2023-04-27T11:11:16.530Z,43.69
2023-04-27T11:12:18.673Z,43.18
2023-04-27T11:13:22.583Z,42.88
2023-04-27T11:14:26.465Z,42.21
2023-04-27T11:15:28.828Z,43.64
2023-04-27T11:16:33.070Z,43.59
2023-04-27T11:17:35.134Z,41.25
2023-04-27T11:18:39.201Z,42.33
2023-04-27T11:19:43.283Z,42.22
2023-04-27T11:20:47.191Z,41.96
2023-04-27T11:21:51.081Z,41.31
2023-04-27T11:22:53.425Z,43.51
2023-04-27T11:23:55.857Z,42.38
2023-04-27T11:24:59.823Z,43.13
2023-04-27T11:26:01.973Z,41.71
2023-04-27T11:27:04.442Z,41.70
2023-04-27T11:28:06.859Z,44.91
2023-04-27T11:29:09.357Z,43.88
2023-04-27T11:30:11.789Z,43.11
2023-04-27T11:31:15.897Z,45.97
2023-04-27T11:32:18.128Z,41.42
2023-04-27T11:33:22.207Z,41.82
2023-04-27T11:34:26.105Z,42.82
2023-04-27T11:35:29.991Z,43.11
2023-04-27T11:36:35.287Z,42.29
2023-04-27T11:37:39.268Z,43.43
2023-04-27T11:38:41.732Z,45.84
2023-04-27T11:39:44.137Z,44.98
2023-04-27T11:40:48.179Z,43.64
2023-04-27T11:50:20.841Z,45.67
2023-04-27T11:51:24.805Z,42.21
2023-04-27T11:52:27.139Z,40.42
2023-04-27T11:53:31.182Z,39.78
2023-04-27T11:54:33.526Z,42.07
2023-04-27T11:55:38.916Z,42.10
2023-04-27T11:56:41.082Z,43.08
2023-04-27T11:57:45.156Z,43.84
2023-04-27T11:58:47.495Z,41.61
2023-04-27T11:59:51.532Z,43.45
2023-04-27T12:00:53.893Z,42.98
2023-04-27T12:01:56.363Z,42.52
2023-04-27T12:03:00.548Z,40.45
2023-04-27T12:04:04.489Z,41.42
2023-04-27T12:05:06.868Z,40.43
2023-04-27T12:06:28.016Z,40.98
2023-04-27T12:07:13.072Z,40.47
2023-04-27T12:08:15.474Z,41.81
2023-04-27T12:09:19.545Z,40.45
2023-04-27T12:10:23.451Z,39.81
2023-04-27T12:11:27.354Z,39.66
2023-04-27T12:12:31.293Z,38.08
2023-04-27T12:13:35.125Z,39.19
2023-04-27T12:14:37.494Z,39.96
2023-04-27T12:15:41.552Z,40.05
2023-04-27T12:16:43.869Z,41.12
2023-04-27T12:17:46.369Z,40.90
2023-04-27T12:18:50.353Z,40.90
2023-04-27T12:19:54.270Z,41.32
2023-04-27T12:21:01.587Z,40.31
2023-04-27T12:22:00.551Z,40.94
2023-04-27T12:23:02.984Z,41.06
2023-04-27T12:24:05.377Z,39.93
2023-04-27T12:25:07.846Z,39.06
2023-04-27T12:26:13.602Z,39.46
2023-04-27T12:27:14.215Z,40.03
2023-04-27T12:28:18.276Z,38.56
2023-04-27T12:29:20.598Z,41.73
2023-04-27T12:30:24.654Z,43.46
2023-04-27T12:31:27.888Z,39.28
2023-04-27T12:32:31.070Z,38.53
2023-04-27T12:33:35.185Z,39.08
2023-04-27T12:34:39.082Z,40.82
2023-04-27T12:35:43.181Z,40.37
2023-04-27T12:36:45.538Z,39.90
2023-04-27T12:37:47.982Z,40.97
2023-04-27T12:38:52.035Z,40.98
2023-04-27T12:39:55.949Z,39.47
2023-04-27T12:40:58.269Z,38.80
2023-04-27T12:50:31.799Z,39.43
2023-04-27T12:51:35.760Z,37.97
2023-04-27T12:52:38.050Z,41.00
2023-04-27T12:53:42.110Z,39.48
2023-04-27T12:54:46.027Z,38.01
2023-04-27T12:55:49.932Z,38.46
2023-04-27T12:56:52.354Z,37.56
2023-04-27T12:57:56.383Z,41.45
2023-04-27T12:59:00.256Z,40.98
2023-04-27T13:00:04.199Z,38.37
2023-04-27T13:01:08.105Z,37.12
2023-04-27T13:02:10.500Z,37.37
2023-04-27T13:03:13.057Z,39.24
2023-04-27T13:04:17.663Z,39.44
2023-04-27T13:05:21.108Z,40.73
2023-04-27T13:06:23.396Z,37.24
2023-04-27T13:07:25.906Z,39.08
2023-04-27T13:08:28.335Z,38.33
2023-04-27T13:09:30.851Z,39.63
2023-04-27T13:10:33.146Z,38.77
2023-04-27T13:11:35.621Z,37.55
2023-04-27T13:12:39.717Z,37.60
2023-04-27T13:13:42.077Z,36.99
2023-04-27T13:14:46.132Z,37.03
2023-04-27T13:15:48.516Z,38.51
2023-04-27T13:16:52.504Z,36.46
2023-04-27T13:17:54.895Z,37.16
2023-04-27T13:18:58.829Z,37.31
2023-04-27T13:20:01.177Z,37.61
2023-04-27T13:21:03.631Z,36.74
2023-04-27T13:22:06.150Z,38.00
2023-04-27T13:23:08.590Z,38.98
2023-04-27T13:24:11.370Z,41.27
2023-04-27T13:25:13.731Z,38.12
2023-04-27T13:26:17.775Z,39.35
2023-04-27T13:27:20.160Z,41.67
2023-04-27T13:28:24.181Z,37.17
2023-04-27T13:29:26.543Z,37.21
2023-04-27T13:30:30.658Z,35.51
2023-04-27T13:31:34.640Z,35.27
2023-04-27T13:32:36.888Z,34.87
2023-04-27T13:33:41.185Z,34.93
2023-04-27T13:34:45.138Z,36.10
2023-04-27T13:35:47.504Z,37.13
2023-04-27T13:36:49.858Z,37.26
2023-04-27T13:37:52.334Z,36.19
2023-04-27T13:38:56.369Z,36.29
2023-04-27T13:40:00.376Z,35.57
2023-04-27T13:41:02.744Z,38.43
2023-04-27T13:42:05.252Z,35.47
2023-04-27T13:43:07.774Z,40.49
2023-04-27T13:44:10.176Z,35.06
2023-04-27T13:45:14.246Z,34.59
2023-04-27T13:46:16.576Z,35.10
2023-04-27T13:47:23.951Z,37.98
2023-04-27T13:48:27.714Z,40.75
2023-04-27T13:49:31.607Z,37.60
2023-04-27T13:50:33.933Z,37.23
2023-04-27T13:51:37.934Z,39.86
2023-04-27T13:52:40.317Z,38.79
2023-04-27T13:53:42.762Z,36.47
2023-04-27T13:54:46.842Z,35.61
2023-04-27T13:55:50.800Z,35.39
2023-04-27T13:56:53.082Z,36.77
2023-04-27T13:57:55.587Z,36.92
2023-04-27T13:58:58.044Z,35.30
2023-04-27T14:00:00.477Z,39.21
2023-04-27T14:01:02.946Z,36.28
2023-04-27T14:02:06.969Z,35.96
2023-04-27T14:03:09.488Z,35.83
2023-04-27T14:04:13.446Z,34.80
2023-04-27T14:05:17.324Z,37.71
2023-04-27T14:06:19.605Z,35.65
2023-04-27T14:07:22.107Z,36.79
2023-04-27T14:08:24.566Z,35.08
2023-04-27T14:09:28.738Z,36.95
2023-04-27T14:10:32.739Z,35.46
2023-04-27T14:11:45.320Z,38.35
2023-04-27T14:12:40.573Z,39.74
2023-04-27T14:13:44.491Z,37.57
2023-04-27T14:14:46.971Z,37.96
2023-04-27T14:15:50.947Z,38.85
2023-04-27T14:16:53.537Z,39.85
2023-04-27T14:17:57.357Z,35.83
2023-04-27T14:18:59.675Z,36.76
2023-04-27T14:20:02.098Z,36.55
2023-04-27T14:21:04.629Z,36.93
2023-04-27T14:22:07.048Z,36.00
2023-04-27T14:23:09.476Z,34.30
2023-04-27T14:24:13.497Z,38.08
2023-04-27T14:25:15.818Z,36.66
2023-04-27T14:26:18.292Z,37.97
2023-04-27T14:27:22.286Z,36.46
2023-04-27T14:28:26.155Z,35.78
2023-04-27T14:29:30.099Z,39.07
2023-04-27T14:30:32.450Z,37.75
2023-04-27T14:31:34.901Z,38.31
2023-04-27T14:32:37.320Z,39.24
2023-04-27T14:33:39.908Z,36.62
2023-04-27T14:34:43.995Z,37.94
2023-04-27T14:35:47.910Z,39.32
2023-04-27T14:36:50.189Z,36.74
2023-04-27T14:37:52.634Z,36.85
2023-04-27T14:38:55.141Z,38.32
2023-04-27T14:39:57.638Z,37.53
2023-04-27T14:41:02.658Z,37.20
2023-04-27T14:42:03.969Z,38.59
2023-04-27T14:43:06.483Z,36.89
2023-04-27T14:44:10.621Z,36.20
2023-04-27T14:45:12.891Z,37.73
2023-04-27T14:46:20.623Z,36.50
2023-04-27T14:47:21.152Z,37.01
2023-04-27T14:48:25.206Z,36.68
2023-04-27T14:49:29.128Z,37.85
2023-04-27T14:50:31.484Z,36.47
2023-04-27T14:51:35.604Z,35.85
2023-04-27T14:52:39.536Z,37.07
2023-04-27T14:53:41.810Z,36.28
2023-04-27T14:54:45.842Z,36.19
2023-04-27T14:55:48.167Z,35.25
2023-04-27T14:56:52.233Z,37.51
2023-04-27T14:57:54.688Z,37.83
2023-04-27T14:58:58.694Z,37.06
2023-04-27T15:00:01.109Z,37.38
2023-04-27T15:01:03.631Z,35.53
2023-04-27T15:02:07.674Z,36.21
2023-04-27T15:03:11.691Z,34.65
2023-04-27T15:04:13.884Z,34.18
2023-04-27T15:05:16.350Z,35.56
2023-04-27T15:06:18.749Z,36.75
2023-04-27T15:07:22.866Z,38.86
2023-04-27T15:08:25.222Z,38.40
2023-04-27T15:09:27.717Z,37.62
2023-04-27T15:10:30.276Z,36.90
2023-04-27T15:11:32.706Z,38.90
2023-04-27T15:12:35.195Z,38.56
2023-04-27T15:13:37.776Z,36.39
2023-04-27T15:14:40.207Z,33.49
2023-04-27T15:15:42.773Z,35.09
2023-04-27T15:16:45.258Z,34.55
2023-04-27T15:17:49.340Z,36.45
2023-04-27T15:18:51.820Z,37.15
2023-04-27T15:19:54.246Z,34.40
2023-04-27T15:20:56.747Z,35.88
2023-04-27T15:22:00.795Z,33.77
2023-04-27T15:23:04.728Z,35.36
2023-04-27T15:24:07.135Z,34.27
2023-04-27T15:25:09.751Z,36.92
2023-04-27T15:26:13.804Z,37.78
2023-04-27T15:27:17.711Z,37.09
2023-04-27T15:28:20.108Z,33.80
2023-04-27T15:29:22.514Z,35.26
2023-04-27T15:30:25.016Z,36.31
2023-04-27T15:31:27.554Z,34.30
2023-04-27T15:32:31.548Z,32.78
2023-04-27T15:33:35.456Z,35.55
2023-04-27T15:34:37.801Z,35.43
2023-04-27T15:35:40.273Z,34.02
2023-04-27T15:36:42.800Z,33.46
2023-04-27T15:37:45.279Z,33.88
2023-04-27T15:38:47.733Z,33.74
2023-04-27T15:39:50.254Z,34.20
2023-04-27T15:40:52.747Z,34.52
2023-04-27T15:41:55.114Z,32.92
2023-04-27T15:42:57.499Z,33.41
2023-04-27T15:44:01.555Z,36.16
2023-04-27T15:45:03.957Z,35.19
2023-04-27T15:46:06.341Z,36.21
2023-04-27T15:47:08.865Z,36.95
2023-04-27T15:48:12.929Z,35.53
2023-04-27T15:49:15.492Z,34.61
2023-04-27T15:50:19.374Z,33.40
2023-04-27T15:51:23.301Z,33.83
2023-04-27T15:52:27.321Z,34.03
2023-04-27T15:53:29.571Z,37.93
2023-04-27T15:54:33.574Z,37.09
2023-04-27T15:55:35.934Z,34.78
2023-04-27T15:56:38.464Z,33.98
2023-04-27T15:57:40.904Z,36.43
2023-04-27T15:58:43.466Z,39.27
2023-04-27T15:59:45.960Z,35.31
2023-04-27T16:00:49.985Z,34.12
2023-04-27T16:01:53.853Z,34.03
2023-04-27T16:02:56.331Z,35.96
2023-04-27T16:03:58.757Z,36.01
2023-04-27T16:05:02.754Z,35.79
2023-04-27T16:06:05.151Z,34.40
2023-04-27T16:07:07.676Z,36.07
2023-04-27T16:08:10.171Z,33.83
2023-04-27T16:09:12.811Z,32.69
2023-04-27T16:10:15.168Z,34.66
2023-04-27T16:11:17.714Z,34.76
2023-04-27T16:12:20.119Z,34.43
2023-04-27T16:13:24.164Z,36.86
2023-04-27T16:14:26.409Z,34.75
2023-04-27T16:15:28.921Z,33.84
2023-04-27T16:16:31.414Z,34.04
2023-04-27T16:17:33.879Z,35.38
2023-04-27T16:18:37.918Z,34.62
2023-04-27T16:19:41.871Z,34.65
2023-04-27T16:20:44.218Z,35.00
2023-04-27T16:21:48.336Z,34.60
2023-04-27T16:22:52.248Z,33.48
2023-04-27T16:23:54.716Z,33.67
2023-04-27T16:24:56.944Z,34.07
2023-04-27T16:25:59.393Z,34.22
2023-04-27T16:27:01.866Z,33.97
2023-04-27T16:28:05.896Z,37.08
2023-04-27T16:29:09.825Z,35.56
2023-04-27T16:30:12.189Z,35.54
2023-04-27T16:31:16.298Z,37.71
2023-04-27T16:32:20.590Z,38.39
2023-04-27T16:33:22.624Z,36.79
2023-04-27T16:34:25.070Z,37.57
2023-04-27T16:35:27.621Z,37.47
2023-04-27T16:36:36.852Z,35.48
2023-04-27T16:37:38.842Z,34.94
2023-04-27T16:38:41.283Z,34.42
2023-04-27T16:39:45.283Z,36.04
2023-04-27T16:40:47.628Z,36.42
2023-04-27T16:41:50.241Z,37.21
2023-04-27T16:42:52.572Z,36.43
2023-04-27T16:43:55.052Z,34.88
2023-04-27T16:44:57.589Z,37.03
2023-04-27T16:46:00.061Z,33.96
2023-04-27T16:47:02.550Z,36.29
2023-04-27T16:48:05.012Z,36.20
2023-04-27T16:49:07.478Z,35.80
2023-04-27T16:50:09.936Z,35.69
2023-04-27T16:51:14.019Z,35.33
2023-04-27T16:52:16.338Z,34.18
2023-04-27T16:53:18.777Z,34.22
2023-04-27T16:54:21.186Z,33.83
2023-04-27T16:55:23.616Z,35.65
2023-04-27T16:56:27.719Z,36.72
2023-04-27T16:57:31.616Z,35.42
2023-04-27T16:58:33.855Z,36.15
2023-04-27T16:59:37.902Z,37.48
2023-04-27T17:00:41.791Z,36.32
2023-04-27T17:01:45.741Z,38.38
2023-04-27T17:02:48.057Z,37.65
2023-04-27T17:03:50.658Z,39.59
2023-04-27T17:04:53.171Z,38.69
2023-04-27T17:05:55.405Z,39.93
2023-04-27T17:06:57.855Z,40.72
2023-04-27T17:08:03.097Z,40.49
2023-04-27T17:09:05.818Z,40.60
2023-04-27T17:10:08.073Z,40.97
2023-04-27T17:11:12.155Z,41.40
2023-04-27T17:12:15.503Z,43.42
2023-04-27T17:13:17.820Z,42.81
2023-04-27T17:14:20.612Z,43.04
2023-04-27T17:15:24.447Z,43.57
2023-04-27T17:16:26.622Z,43.27
2023-04-27T17:17:29.061Z,43.64
2023-04-27T17:18:31.490Z,44.35
2023-04-27T17:19:33.903Z,44.08
2023-04-27T17:20:39.258Z,44.86
2023-04-27T17:21:41.903Z,44.77
2023-04-27T17:22:44.182Z,44.45
2023-04-27T17:23:46.613Z,45.34
2023-04-27T17:24:49.089Z,45.80
2023-04-27T17:25:53.070Z,45.41
2023-04-27T17:26:55.413Z,44.78
2023-04-27T17:27:59.529Z,45.74
2023-04-27T17:29:00.212Z,45.45
2023-04-27T17:30:02.707Z,43.37
2023-04-27T17:31:05.132Z,44.58
2023-04-27T17:32:07.512Z,44.70
2023-04-27T17:33:09.996Z,46.08
2023-04-27T17:34:12.405Z,45.89
2023-04-27T17:35:14.844Z,45.52
2023-04-27T17:36:18.829Z,46.38
2023-04-27T17:37:21.133Z,46.76
2023-04-27T17:38:25.146Z,46.56
2023-04-27T17:39:27.482Z,46.63
2023-04-27T17:40:29.921Z,47.36
2023-04-27T17:41:33.093Z,46.88
2023-04-27T17:42:36.379Z,47.52
2023-04-27T17:43:40.255Z,48.03
2023-04-27T17:44:45.142Z,48.34
2023-04-27T17:45:47.432Z,48.25
2023-04-27T17:46:49.841Z,48.48
2023-04-27T17:47:52.207Z,48.79
2023-04-27T17:48:54.607Z,49.22
2023-04-27T17:49:57.033Z,50.14
2023-04-27T17:50:59.409Z,50.04
2023-04-27T17:52:01.868Z,51.03
2023-04-27T17:53:04.443Z,51.43
2023-04-27T17:54:08.443Z,50.65
2023-04-27T17:55:12.381Z,51.36
2023-04-27T17:56:14.686Z,51.71
2023-04-27T17:57:17.079Z,51.20
2023-04-27T17:58:19.505Z,51.12
2023-04-27T17:59:24.317Z,51.43
2023-04-27T18:00:26.478Z,51.70
2023-04-27T18:01:28.857Z,51.83
2023-04-27T18:02:31.262Z,52.03
2023-04-27T18:03:37.468Z,52.32
2023-04-27T18:04:47.444Z,52.11
2023-04-27T18:05:53.349Z,52.17
2023-04-27T18:06:55.378Z,52.38
2023-04-27T18:07:57.821Z,52.69
2023-04-27T18:09:00.125Z,53.05
2023-04-27T18:10:02.497Z,52.68
2023-04-27T18:11:04.848Z,52.48
2023-04-27T18:12:07.141Z,53.52
2023-04-27T18:13:09.479Z,53.17
2023-04-27T18:14:13.535Z,53.39
2023-04-27T18:15:19.852Z,53.73
2023-04-27T18:16:24.762Z,53.90
2023-04-27T18:17:28.384Z,53.56
2023-04-27T18:18:30.541Z,53.75
2023-04-27T18:19:35.326Z,54.11
2023-04-27T18:20:37.792Z,54.78
2023-04-27T18:21:40.037Z,54.93
2023-04-27T18:22:42.518Z,54.91
2023-04-27T18:23:46.894Z,54.19
2023-04-27T18:24:49.317Z,54.00
2023-04-27T18:25:53.365Z,54.50
2023-04-27T18:26:55.619Z,54.55
2023-04-27T18:27:58.062Z,54.16
2023-04-27T18:29:00.436Z,54.06
2023-04-27T18:30:04.502Z,54.38
2023-04-27T18:31:08.394Z,55.05
2023-04-27T18:32:12.369Z,54.97
2023-04-27T18:41:43.512Z,56.85
2023-04-27T18:51:14.862Z,58.22
2023-04-27T19:00:47.647Z,59.24
2023-04-27T19:10:19.389Z,58.07
2023-04-27T19:11:23.497Z,58.47
2023-04-27T19:20:55.289Z,58.69
2023-04-27T19:30:29.165Z,58.50
2023-04-27T19:40:02.553Z,59.02
2023-04-27T19:49:36.082Z,59.69
2023-04-27T19:59:09.361Z,60.80
2023-04-27T20:08:43.346Z,60.45
2023-04-27T20:18:18.974Z,60.37
2023-04-27T20:27:53.010Z,60.56
2023-04-27T20:37:26.686Z,61.30
2023-04-27T20:46:59.034Z,60.62
2023-04-27T20:56:33.149Z,61.03
2023-04-27T21:06:08.547Z,61.01
2023-04-27T21:15:42.944Z,62.05
2023-04-27T21:25:14.666Z,61.33
2023-04-27T21:34:48.796Z,61.54
2023-04-27T21:44:23.217Z,62.04
2023-04-27T21:53:57.459Z,63.18
2023-04-27T22:03:31.628Z,63.39
2023-04-27T22:13:17.521Z,63.92
2023-04-27T22:22:40.955Z,62.69
2023-04-27T22:32:13.009Z,62.11
2023-04-27T22:41:47.392Z,63.18
2023-04-27T22:51:23.306Z,64.03
2023-04-27T23:00:55.595Z,63.14
2023-04-27T23:10:29.565Z,64.33
2023-04-27T23:20:06.946Z,64.72
2023-04-27T23:48:45.778Z,64.57
2023-04-27T23:58:21.466Z,68.25
